Time;durP1;ratioP1;P1;durP2;ratioP2;P2;SDS_P1;SDS_P2;PMS_P1;PMS_P2;Temp;Humidity;BMP_temperature;BMP_pressure;BME280_temperature;BME280_humidity;BME280_pressure;Samples;Min_cycle;Max_cycle;Signal;HPM_P1;HPM_P2
2022/10/26 00:01:36;;;;;;;13.90;6.20;;;11.40;99.90;;;;;;5102670;28;20468;-82
2022/10/26 00:04:20;;;;;;;6.87;5.30;;;11.40;99.90;;;;;;5103733;28;20463;-82
2022/10/26 00:07:04;;;;;;;6.80;4.63;;;11.40;99.90;;;;;;5103121;28;20452;-82
2022/10/26 00:09:49;;;;;;;20.17;6.70;;;11.30;99.90;;;;;;5087750;28;20404;-82
2022/10/26 00:12:33;;;;;;;15.63;4.63;;;11.30;99.90;;;;;;5102446;28;20384;-82
2022/10/26 00:15:19;;;;;;;9.70;5.50;;;11.40;99.90;;;;;;5103758;28;20470;-82
2022/10/26 00:18:03;;;;;;;8.23;5.27;;;11.40;99.90;;;;;;5103635;28;20412;-82
2022/10/26 00:20:47;;;;;;;9.60;4.83;;;11.40;99.90;;;;;;5103165;28;20477;-81
2022/10/26 00:23:32;;;;;;;5.63;4.70;;;11.40;99.90;;;;;;5087190;28;20380;-81
2022/10/26 00:26:17;;;;;;;6.03;5.43;;;11.30;99.90;;;;;;5102495;28;20793;-82
2022/10/26 00:29:01;;;;;;;5.47;4.80;;;11.40;99.90;;;;;;5102667;28;20420;-81
2022/10/26 00:31:46;;;;;;;6.87;5.10;;;11.30;99.90;;;;;;5080085;28;20766;-79
2022/10/26 00:34:31;;;;;;;8.33;4.37;;;11.30;99.90;;;;;;5078901;28;21069;-81
2022/10/26 00:37:15;;;;;;;4.40;4.00;;;11.30;99.90;;;;;;5079173;28;20421;-81
2022/10/26 00:40:00;;;;;;;5.13;4.27;;;11.30;99.90;;;;;;5079602;28;20411;-81
2022/10/26 00:42:44;;;;;;;8.13;5.10;;;11.20;99.90;;;;;;5080240;28;20407;-81
2022/10/26 00:45:30;;;;;;;9.53;5.10;;;11.20;99.90;;;;;;5079503;28;20405;-81
2022/10/26 00:48:23;;;;;;;5.53;4.37;;;11.10;99.90;;;;;;5080693;28;20432;-81
2022/10/26 00:51:14;;;;;;;5.20;4.63;;;11.00;99.90;;;;;;5081056;28;20800;-82
2022/10/26 00:54:02;;;;;;;9.67;4.53;;;11.00;99.90;;;;;;5080247;28;20582;-82
2022/10/26 00:56:50;;;;;;;6.30;4.93;;;11.00;99.90;;;;;;5080293;28;20457;-81
2022/10/26 00:59:34;;;;;;;4.80;4.30;;;11.00;99.90;;;;;;5081009;28;20435;-82
2022/10/26 01:02:18;;;;;;;4.53;4.20;;;11.00;99.90;;;;;;5090023;28;20404;-81
2022/10/26 01:05:05;;;;;;;5.27;4.77;;;11.00;99.90;;;;;;5087083;28;20431;-82
2022/10/26 01:07:50;;;;;;;5.23;4.20;;;11.00;99.90;;;;;;5103797;28;20392;-81
2022/10/26 01:10:36;;;;;;;4.40;4.00;;;11.00;99.90;;;;;;5105394;28;20396;-81
2022/10/26 01:13:21;;;;;;;4.57;4.17;;;11.00;99.90;;;;;;5089957;28;20383;-81
2022/10/26 01:16:46;;;;;;;5.50;4.80;;;11.00;99.90;;;;;;5106370;28;20494;-79
2022/10/26 01:20:08;;;;;;;11.60;5.17;;;11.00;99.90;;;;;;5106615;28;20892;-79
2022/10/26 01:22:58;;;;;;;6.80;6.10;;;11.00;99.90;;;;;;5104002;28;20380;-82
2022/10/26 01:26:07;;;;;;;4.90;4.40;;;10.90;99.90;;;;;;5104695;28;20414;-82
2022/10/26 01:29:13;;;;;;;8.90;4.80;;;10.90;99.90;;;;;;5103237;28;20384;-82
2022/10/26 01:32:09;;;;;;;4.80;4.40;;;10.80;99.90;;;;;;5102523;28;20392;-82
2022/10/26 01:35:09;;;;;;;10.03;6.07;;;10.80;99.90;;;;;;5101798;28;20928;-82
2022/10/26 01:38:01;;;;;;;6.37;5.77;;;10.90;99.90;;;;;;5102697;28;20474;-82
2022/10/26 01:40:57;;;;;;;4.90;4.30;;;10.80;99.90;;;;;;5103791;28;20380;-80
2022/10/26 01:43:49;;;;;;;5.37;4.70;;;10.70;99.90;;;;;;5106865;28;20431;-79
2022/10/26 01:46:38;;;;;;;8.93;4.50;;;10.70;99.90;;;;;;5103035;28;20946;-81
2022/10/26 01:49:26;;;;;;;9.27;6.40;;;10.70;99.90;;;;;;5102265;28;20462;-82
2022/10/26 01:52:11;;;;;;;8.33;5.87;;;10.70;99.90;;;;;;5102085;28;20438;-82
2022/10/26 01:55:01;;;;;;;11.00;5.57;;;10.60;99.90;;;;;;5101915;28;20431;-82
2022/10/26 01:57:45;;;;;;;11.73;5.60;;;10.70;99.90;;;;;;5102547;28;20429;-81
2022/10/26 02:00:35;;;;;;;5.47;4.60;;;10.70;99.90;;;;;;5101709;28;20466;-82
2022/10/26 02:03:36;;;;;;;25.70;6.20;;;10.70;99.90;;;;;;5102785;28;20406;-82
2022/10/26 02:06:37;;;;;;;6.00;4.50;;;10.70;99.90;;;;;;5106381;28;20375;-81
2022/10/26 02:09:47;;;;;;;5.13;4.63;;;10.70;99.90;;;;;;5106730;28;20459;-81
2022/10/26 02:12:48;;;;;;;23.27;5.67;;;10.80;99.90;;;;;;5106392;28;20380;-82
2022/10/26 02:15:55;;;;;;;6.00;4.43;;;10.80;99.90;;;;;;5105856;28;20436;-82
2022/10/26 02:18:57;;;;;;;5.60;4.40;;;10.80;99.90;;;;;;5105754;28;20384;-81
2022/10/26 02:21:47;;;;;;;5.00;4.50;;;10.80;99.90;;;;;;5105579;28;20388;-81
2022/10/26 02:24:33;;;;;;;4.77;4.37;;;10.80;99.90;;;;;;5105437;28;20384;-81
2022/10/26 02:27:22;;;;;;;5.83;5.37;;;10.90;99.90;;;;;;5104888;28;20450;-81
2022/10/26 02:30:08;;;;;;;5.40;4.87;;;10.90;99.90;;;;;;5105719;28;20387;-81
2022/10/26 02:32:55;;;;;;;4.83;4.43;;;10.90;99.90;;;;;;5106558;28;20455;-82
2022/10/26 02:35:42;;;;;;;5.90;5.07;;;11.00;99.90;;;;;;5105762;28;20967;-81
2022/10/26 02:38:29;;;;;;;6.30;5.37;;;11.00;99.90;;;;;;5105817;28;20953;-81
2022/10/26 02:41:16;;;;;;;5.27;4.87;;;10.90;99.90;;;;;;5105643;28;20483;-82
2022/10/26 02:44:10;;;;;;;5.67;4.97;;;11.00;99.90;;;;;;5090027;28;20408;-82
2022/10/26 02:46:55;;;;;;;9.53;5.67;;;10.90;99.90;;;;;;5105096;28;20388;-82
2022/10/26 02:49:40;;;;;;;5.60;5.10;;;10.90;99.90;;;;;;5105431;28;20416;-81
2022/10/26 02:52:47;;;;;;;5.10;4.60;;;10.90;99.90;;;;;;5104995;28;20392;-82
2022/10/26 02:55:39;;;;;;;8.13;5.53;;;10.90;99.90;;;;;;5104936;28;20574;-82
2022/10/26 02:58:28;;;;;;;5.70;4.70;;;11.00;99.90;;;;;;5105743;28;20524;-82
2022/10/26 03:01:13;;;;;;;6.17;5.50;;;10.90;99.90;;;;;;5105074;28;20410;-81
2022/10/26 03:03:58;;;;;;;6.20;5.40;;;10.80;99.90;;;;;;5105286;28;20376;-82
2022/10/26 03:06:52;;;;;;;5.10;4.60;;;10.90;99.90;;;;;;5104988;28;20405;-82
2022/10/26 03:09:36;;;;;;;4.90;4.47;;;10.90;99.90;;;;;;5104437;28;20375;-81
2022/10/26 03:12:20;;;;;;;6.43;5.83;;;10.80;99.90;;;;;;5103771;28;20396;-81
2022/10/26 03:15:05;;;;;;;4.50;4.10;;;10.60;99.90;;;;;;5103798;28;20471;-81
2022/10/26 03:17:49;;;;;;;4.67;4.23;;;10.40;99.90;;;;;;5104640;28;20396;-80
2022/10/26 03:20:34;;;;;;;7.10;6.40;;;10.40;99.90;;;;;;5105473;28;20399;-81
2022/10/26 03:23:18;;;;;;;5.60;4.60;;;10.50;99.90;;;;;;5104746;28;20446;-78
2022/10/26 03:26:02;;;;;;;7.63;5.87;;;10.40;99.90;;;;;;5104185;28;20929;-80
2022/10/26 03:28:46;;;;;;;10.10;5.13;;;10.50;99.90;;;;;;5103696;28;20768;-80
2022/10/26 03:31:30;;;;;;;5.43;4.93;;;10.60;99.90;;;;;;5103747;28;20449;-79
2022/10/26 03:34:14;;;;;;;8.40;5.47;;;10.70;99.90;;;;;;5104182;28;20474;-80
2022/10/26 03:36:58;;;;;;;6.07;5.13;;;10.80;99.90;;;;;;5104271;28;20384;-81
2022/10/26 03:39:43;;;;;;;6.87;6.27;;;10.70;99.90;;;;;;5103795;28;20388;-81
2022/10/26 03:42:32;;;;;;;6.70;5.63;;;10.50;99.90;;;;;;5088686;28;20486;-80
2022/10/26 03:45:16;;;;;;;6.20;5.47;;;10.40;99.90;;;;;;5104226;28;20461;-81
2022/10/26 03:48:00;;;;;;;3.83;3.53;;;10.20;99.90;;;;;;5102584;28;20467;-81
2022/10/26 03:50:44;;;;;;;7.07;4.80;;;10.10;99.90;;;;;;5103246;28;20427;-81
2022/10/26 03:53:28;;;;;;;5.93;5.37;;;10.00;99.90;;;;;;5103221;28;20450;-81
2022/10/26 03:56:12;;;;;;;9.07;4.67;;;9.90;99.90;;;;;;5103017;28;20435;-81
2022/10/26 03:58:56;;;;;;;3.80;3.47;;;10.00;99.90;;;;;;5102766;28;20399;-81
2022/10/26 04:01:41;;;;;;;5.43;4.93;;;10.10;99.90;;;;;;5103704;28;20396;-82
2022/10/26 04:04:25;;;;;;;4.60;4.20;;;9.90;99.90;;;;;;5103315;28;20917;-81
2022/10/26 04:07:09;;;;;;;5.30;4.80;;;10.30;99.90;;;;;;5103486;28;20396;-81
2022/10/26 04:09:53;;;;;;;6.60;5.73;;;10.40;99.90;;;;;;5103720;28;20478;-81
2022/10/26 04:12:38;;;;;;;4.70;4.30;;;10.60;99.90;;;;;;5103651;28;20443;-82
2022/10/26 04:15:22;;;;;;;9.10;5.50;;;10.80;99.90;;;;;;5073288;28;20431;-82
2022/10/26 04:18:08;;;;;;;8.37;6.00;;;10.90;99.90;;;;;;5088144;28;20396;-82
2022/10/26 04:20:52;;;;;;;6.40;5.63;;;11.00;99.90;;;;;;5103093;28;20383;-82
2022/10/26 04:23:36;;;;;;;7.43;6.17;;;11.00;99.90;;;;;;5103123;28;20377;-81
2022/10/26 04:26:20;;;;;;;6.70;6.07;;;11.00;99.90;;;;;;5102362;28;20384;-82
2022/10/26 04:29:05;;;;;;;10.63;5.67;;;11.00;99.90;;;;;;5101967;28;20434;-82
2022/10/26 04:31:49;;;;;;;6.10;5.50;;;11.00;99.90;;;;;;5103736;28;20463;-81
2022/10/26 04:34:34;;;;;;;5.53;5.03;;;11.00;99.90;;;;;;5082731;28;20524;-82
2022/10/26 04:37:18;;;;;;;7.90;4.80;;;11.10;99.90;;;;;;5067629;28;20454;-81
2022/10/26 04:40:03;;;;;;;5.83;5.23;;;11.10;99.90;;;;;;5082669;28;20442;-81
2022/10/26 04:42:47;;;;;;;6.00;5.50;;;11.10;99.90;;;;;;5082650;28;20404;-81
2022/10/26 04:45:31;;;;;;;6.67;5.57;;;11.10;99.90;;;;;;5082956;28;20385;-82
2022/10/26 04:48:16;;;;;;;6.83;5.40;;;11.00;99.90;;;;;;5082550;28;20389;-81
2022/10/26 04:51:00;;;;;;;5.93;5.33;;;11.00;99.90;;;;;;5082087;28;20421;-82
2022/10/26 04:53:44;;;;;;;7.23;5.43;;;11.00;99.90;;;;;;5067192;28;20451;-81
2022/10/26 04:56:29;;;;;;;6.10;5.50;;;10.90;99.90;;;;;;5067171;28;20456;-82
2022/10/26 04:59:13;;;;;;;5.87;5.20;;;10.90;99.90;;;;;;5082842;28;20405;-82
2022/10/26 05:01:58;;;;;;;9.10;6.23;;;10.90;99.90;;;;;;5082572;28;20431;-81
2022/10/26 05:04:42;;;;;;;6.00;5.37;;;11.10;99.90;;;;;;5083157;28;20416;-81
2022/10/26 05:07:26;;;;;;;6.37;5.67;;;11.10;99.90;;;;;;5082721;28;20400;-82
2022/10/26 05:10:11;;;;;;;6.63;6.03;;;11.10;99.90;;;;;;5083012;28;20952;-82
2022/10/26 05:12:58;;;;;;;7.57;6.00;;;11.20;99.90;;;;;;5083812;28;20462;-82
2022/10/26 05:15:42;;;;;;;8.47;6.03;;;11.20;99.90;;;;;;5067779;28;20463;-82
2022/10/26 05:18:26;;;;;;;6.17;5.63;;;11.30;99.90;;;;;;5082809;28;20500;-81
2022/10/26 05:21:11;;;;;;;6.20;5.70;;;11.30;99.90;;;;;;5082132;28;20420;-80
2022/10/26 05:23:55;;;;;;;4.93;4.43;;;11.30;99.90;;;;;;5076667;28;20428;-80
2022/10/26 05:26:39;;;;;;;5.53;4.77;;;11.30;99.90;;;;;;5088165;28;20488;-81
2022/10/26 05:29:23;;;;;;;5.70;5.20;;;11.30;99.90;;;;;;5077552;28;20411;-80
2022/10/26 05:32:07;;;;;;;6.20;5.00;;;11.30;99.90;;;;;;5078901;28;20460;-81
2022/10/26 05:34:52;;;;;;;7.17;5.30;;;11.40;99.90;;;;;;5086084;28;20439;-81
2022/10/26 05:37:36;;;;;;;11.73;5.77;;;11.30;99.90;;;;;;5101884;28;20536;-81
2022/10/26 05:40:21;;;;;;;6.93;5.60;;;11.30;99.90;;;;;;5099924;28;20490;-80
2022/10/26 05:43:06;;;;;;;6.60;5.47;;;11.40;99.90;;;;;;5088823;28;20396;-82
2022/10/26 05:45:50;;;;;;;7.93;4.90;;;11.40;99.90;;;;;;5089995;28;20974;-79
2022/10/26 05:48:34;;;;;;;7.13;4.80;;;11.50;99.90;;;;;;5089935;28;20482;-80
2022/10/26 05:51:18;;;;;;;12.40;5.17;;;11.40;99.90;;;;;;5092867;28;20491;-81
2022/10/26 05:54:03;;;;;;;8.57;4.90;;;11.40;99.90;;;;;;5115422;28;20434;-81
2022/10/26 05:56:47;;;;;;;6.40;5.90;;;11.20;99.90;;;;;;5102855;28;20470;-82
2022/10/26 05:59:32;;;;;;;6.30;4.80;;;11.30;99.90;;;;;;5088524;28;20933;-82
2022/10/26 06:02:37;;;;;;;6.50;4.73;;;11.30;99.90;;;;;;5103424;28;20411;-82
2022/10/26 06:05:26;;;;;;;5.70;5.03;;;11.30;99.90;;;;;;5082076;28;20529;-81
2022/10/26 06:08:11;;;;;;;7.23;5.10;;;11.30;99.90;;;;;;5074550;28;20441;-82
2022/10/26 06:10:58;;;;;;;6.27;4.70;;;11.30;99.90;;;;;;5066903;28;20426;-81
2022/10/26 06:13:42;;;;;;;5.33;4.80;;;11.10;99.90;;;;;;5078229;28;20482;-81
2022/10/26 06:16:50;;;;;;;6.67;5.70;;;11.10;99.90;;;;;;5080615;28;20518;-82
2022/10/26 06:20:07;;;;;;;6.37;5.73;;;11.10;99.90;;;;;;5079230;28;20452;-82
2022/10/26 06:23:15;;;;;;;5.40;4.90;;;10.90;99.90;;;;;;5069571;28;20413;-81
2022/10/26 06:26:19;;;;;;;7.30;6.47;;;11.00;99.90;;;;;;5076182;28;20480;-83
2022/10/26 06:29:21;;;;;;;13.80;8.00;;;11.20;99.90;;;;;;5083463;28;20506;-81
2022/10/26 06:32:08;;;;;;;9.63;7.20;;;11.30;99.90;;;;;;5074571;28;20455;-80
2022/10/26 06:35:10;;;;;;;13.73;8.33;;;11.40;99.90;;;;;;5079520;28;20455;-80
2022/10/26 06:37:55;;;;;;;11.00;9.20;;;11.40;99.90;;;;;;5092541;28;20410;-79
2022/10/26 06:40:43;;;;;;;14.57;9.50;;;11.40;99.90;;;;;;5092688;28;20484;-80
2022/10/26 06:43:31;;;;;;;8.80;7.97;;;11.40;99.90;;;;;;5096363;28;20454;-79
2022/10/26 06:46:37;;;;;;;13.13;8.63;;;11.50;99.90;;;;;;5102196;28;21016;-78
2022/10/26 06:49:33;;;;;;;8.10;7.40;;;11.60;99.90;;;;;;5100513;28;20509;-81
2022/10/26 06:52:27;;;;;;;8.40;6.33;;;11.60;99.90;;;;;;5097263;28;20507;-81
2022/10/26 06:55:14;;;;;;;9.63;7.17;;;11.60;99.90;;;;;;5097864;28;20457;-82
2022/10/26 06:57:58;;;;;;;9.17;7.47;;;11.60;99.90;;;;;;5096009;28;20478;-82
2022/10/26 07:00:45;;;;;;;8.20;7.33;;;11.60;99.90;;;;;;5094179;28;20716;-83
2022/10/26 07:03:30;;;;;;;10.70;6.50;;;11.70;99.90;;;;;;5090255;28;20418;-82
2022/10/26 07:06:14;;;;;;;7.97;6.67;;;11.70;99.90;;;;;;5089831;28;20474;-82
2022/10/26 07:08:58;;;;;;;8.73;6.10;;;11.80;99.90;;;;;;5095599;28;20434;-80
2022/10/26 07:11:42;;;;;;;21.00;7.50;;;11.80;99.90;;;;;;5082866;28;20845;-81
2022/10/26 07:14:26;;;;;;;13.50;6.73;;;11.90;99.90;;;;;;5095853;28;20435;-82
2022/10/26 07:17:10;;;;;;;6.27;5.67;;;12.00;99.90;;;;;;5098513;28;20471;-80
2022/10/26 07:19:56;;;;;;;10.50;6.67;;;12.10;99.90;;;;;;5097202;28;20935;-83
2022/10/26 07:22:41;;;;;;;12.93;7.53;;;12.10;99.90;;;;;;5101581;28;20408;-79
2022/10/26 07:25:27;;;;;;;8.20;7.30;;;12.10;99.90;;;;;;5093158;28;20924;-80
2022/10/26 07:28:11;;;;;;;9.97;7.23;;;12.10;99.90;;;;;;5096854;28;20436;-80
2022/10/26 07:30:57;;;;;;;9.97;7.50;;;12.10;99.90;;;;;;5099357;28;20787;-81
2022/10/26 07:33:44;;;;;;;9.30;6.87;;;12.10;99.90;;;;;;5091591;28;20551;-80
2022/10/26 07:36:28;;;;;;;9.30;6.07;;;12.10;99.90;;;;;;5093566;28;20482;-80
2022/10/26 07:39:13;;;;;;;8.20;6.33;;;12.10;99.90;;;;;;5091793;28;20836;-82
2022/10/26 07:41:57;;;;;;;6.77;6.10;;;12.30;99.90;;;;;;5071821;28;20423;-81
2022/10/26 07:44:41;;;;;;;9.93;6.33;;;12.30;99.90;;;;;;5083980;28;20533;-81
2022/10/26 07:47:25;;;;;;;7.13;6.40;;;12.40;99.90;;;;;;5089838;28;20471;-81
2022/10/26 07:50:10;;;;;;;9.00;6.50;;;12.50;99.90;;;;;;5092757;28;20458;-81
2022/10/26 07:52:56;;;;;;;15.43;5.80;;;12.60;99.90;;;;;;5095472;28;20419;-82
2022/10/26 07:55:41;;;;;;;7.60;5.40;;;12.70;99.90;;;;;;5092295;28;20497;-81
2022/10/26 07:58:26;;;;;;;7.70;5.47;;;12.50;99.90;;;;;;5093344;28;20478;-79
2022/10/26 08:01:13;;;;;;;7.43;6.57;;;12.40;99.90;;;;;;5080787;28;20439;-82
2022/10/26 08:03:57;;;;;;;8.37;5.50;;;12.40;99.90;;;;;;5099410;28;20483;-82
2022/10/26 08:06:42;;;;;;;8.00;6.03;;;12.40;99.90;;;;;;5094060;28;20538;-81
2022/10/26 08:09:26;;;;;;;8.37;5.70;;;12.50;99.90;;;;;;5096646;28;20998;-82
2022/10/26 08:12:12;;;;;;;10.30;6.57;;;12.60;99.90;;;;;;5097830;28;20467;-81
2022/10/26 08:14:56;;;;;;;7.27;6.57;;;12.70;99.90;;;;;;5085404;28;20441;-81
2022/10/26 08:17:40;;;;;;;10.10;7.50;;;12.80;99.90;;;;;;5100415;28;20431;-80
2022/10/26 08:20:25;;;;;;;12.07;8.37;;;12.90;99.90;;;;;;5083949;28;20450;-79
2022/10/26 08:23:09;;;;;;;14.60;9.10;;;12.90;99.90;;;;;;5078423;28;20431;-81
2022/10/26 08:25:58;;;;;;;8.20;6.37;;;13.00;99.90;;;;;;5098604;28;20427;-80
2022/10/26 08:28:42;;;;;;;9.50;8.13;;;13.20;99.90;;;;;;5098063;28;20597;-80
2022/10/26 08:31:27;;;;;;;7.87;7.07;;;13.30;99.90;;;;;;5084858;28;20402;-82
2022/10/26 08:34:11;;;;;;;11.47;8.47;;;13.40;99.90;;;;;;5090743;28;20491;-82
2022/10/26 08:36:56;;;;;;;8.83;7.80;;;13.50;99.90;;;;;;5078703;28;20790;-81
2022/10/26 08:39:41;;;;;;;10.03;7.60;;;13.50;99.90;;;;;;5094414;28;20427;-80
2022/10/26 08:42:32;;;;;;;10.80;8.57;;;13.50;99.90;;;;;;5094821;28;20439;-81
2022/10/26 08:45:29;;;;;;;12.33;8.67;;;13.60;99.90;;;;;;5100119;28;20439;-81
2022/10/26 08:48:20;;;;;;;9.10;7.20;;;13.60;99.90;;;;;;5098499;28;20985;-82
2022/10/26 08:51:15;;;;;;;8.60;5.70;;;13.70;99.90;;;;;;5094938;28;20427;-79
2022/10/26 08:54:09;;;;;;;6.47;5.67;;;13.70;99.90;;;;;;5092113;28;20432;-81
2022/10/26 08:57:00;;;;;;;6.23;5.10;;;13.70;99.90;;;;;;5068745;28;20509;-81
2022/10/26 09:00:09;;;;;;;11.67;7.03;;;13.80;99.90;;;;;;5096702;28;20950;-81
2022/10/26 09:02:53;;;;;;;10.33;7.10;;;13.90;99.90;;;;;;5085482;28;20444;-79
2022/10/26 09:05:56;;;;;;;9.27;4.53;;;13.80;99.90;;;;;;5080435;28;20474;-80
2022/10/26 09:08:54;;;;;;;8.80;5.10;;;13.80;99.90;;;;;;5095883;28;20431;-82
2022/10/26 09:12:18;;;;;;;5.27;4.80;;;13.80;99.90;;;;;;5081285;28;20421;-82
2022/10/26 09:15:38;;;;;;;5.30;4.80;;;13.70;99.90;;;;;;5093058;28;20567;-82
2022/10/26 09:18:49;;;;;;;6.63;4.60;;;13.80;99.90;;;;;;5099479;28;20499;-82
2022/10/26 09:22:07;;;;;;;5.37;4.47;;;13.90;99.90;;;;;;5084854;28;20471;-81
2022/10/26 09:24:55;;;;;;;10.20;4.93;;;14.00;99.90;;;;;;5100883;28;20541;-79
2022/10/26 09:27:45;;;;;;;6.67;4.20;;;14.00;99.90;;;;;;5083463;28;20424;-80
2022/10/26 09:30:29;;;;;;;5.27;4.80;;;14.10;99.90;;;;;;5086512;28;20534;-81
2022/10/26 09:33:21;;;;;;;8.03;5.83;;;14.20;99.90;;;;;;5098837;28;20522;-80
2022/10/26 09:36:11;;;;;;;10.60;7.57;;;14.20;99.90;;;;;;5106494;28;20513;-80
2022/10/26 09:39:03;;;;;;;14.67;7.23;;;14.20;99.90;;;;;;5102598;28;20583;-80
2022/10/26 09:41:56;;;;;;;10.17;8.13;;;14.20;99.90;;;;;;5099200;28;20493;-79
2022/10/26 09:44:56;;;;;;;8.77;6.70;;;14.30;99.90;;;;;;5083217;28;20781;-81
2022/10/26 09:47:47;;;;;;;12.60;5.70;;;14.30;99.90;;;;;;5100380;28;20431;-80
2022/10/26 09:50:35;;;;;;;9.85;6.35;;;14.30;99.90;;;;;;5083052;28;20945;-79
2022/10/26 09:53:19;;;;;;;5.90;5.30;;;14.40;99.90;;;;;;5113247;28;20189;-80
2022/10/26 09:56:07;;;;;;;8.77;5.30;;;14.50;99.90;;;;;;5104365;28;20458;-80
2022/10/26 09:58:58;;;;;;;3.93;3.60;;;14.50;99.90;;;;;;5093549;28;20424;-80
2022/10/26 10:01:43;;;;;;;5.23;4.50;;;14.60;99.90;;;;;;5105358;28;20447;-80
2022/10/26 10:04:32;;;;;;;4.37;3.97;;;14.70;99.90;;;;;;5070757;28;20432;-81
2022/10/26 10:07:17;;;;;;;11.93;6.17;;;14.80;99.90;;;;;;5076128;28;20414;-81
2022/10/26 10:10:16;;;;;;;7.33;3.30;;;14.90;99.90;;;;;;5079297;28;20508;-80
2022/10/26 10:13:15;;;;;;;12.03;4.30;;;15.10;99.90;;;;;;5044755;28;20477;-81
2022/10/26 10:16:04;;;;;;;3.67;3.00;;;15.00;99.90;;;;;;5048594;28;20493;-82
2022/10/26 10:18:59;;;;;;;5.83;2.50;;;15.20;99.90;;;;;;5039043;28;20458;-82
2022/10/26 10:21:54;;;;;;;3.27;2.80;;;15.40;99.90;;;;;;5039239;28;20438;-81
2022/10/26 10:24:51;;;;;;;3.70;2.83;;;15.50;99.90;;;;;;5025741;28;20469;-81
2022/10/26 10:27:55;;;;;;;4.63;3.40;;;15.70;99.90;;;;;;5020064;28;20964;-80
2022/10/26 10:30:56;;;;;;;5.10;2.97;;;16.10;99.90;;;;;;5018606;28;20439;-82
2022/10/26 10:33:44;;;;;;;3.20;2.90;;;16.40;99.90;;;;;;4991790;28;20474;-82
2022/10/26 10:36:29;;;;;;;3.90;3.47;;;16.50;99.90;;;;;;4983367;28;20472;-81
2022/10/26 10:39:36;;;;;;;5.53;3.00;;;18.50;99.90;;;;;;4969980;28;20550;-83
2022/10/26 10:42:26;;;;;;;5.00;3.20;;;19.00;99.90;;;;;;4987847;28;20440;-82
2022/10/26 10:45:22;;;;;;;3.43;2.43;;;19.30;99.90;;;;;;4984490;28;20429;-81
2022/10/26 10:48:19;;;;;;;5.30;2.90;;;19.60;99.90;;;;;;4952640;28;20632;-82
2022/10/26 10:51:11;;;;;;;9.33;3.60;;;19.30;99.90;;;;;;4956444;28;20511;-82
2022/10/26 10:53:56;;;;;;;4.53;3.33;;;20.00;99.90;;;;;;4944048;28;20460;-80
2022/10/26 10:56:50;;;;;;;2.77;2.57;;;20.70;99.90;;;;;;4942205;28;20553;-79
2022/10/26 11:00:10;;;;;;;5.10;2.80;;;21.10;99.90;;;;;;4955591;28;20579;-79
2022/10/26 11:03:28;;;;;;;3.10;2.70;;;21.70;99.90;;;;;;4948107;28;20442;-81
2022/10/26 11:06:16;;;;;;;6.07;2.77;;;21.20;99.90;;;;;;4959467;28;20448;-79
2022/10/26 11:09:12;;;;;;;3.00;2.73;;;21.70;99.90;;;;;;4970426;28;20593;-80
2022/10/26 11:12:11;;;;;;;4.47;2.50;;;21.20;99.90;;;;;;4966228;28;20464;-79
2022/10/26 11:15:05;;;;;;;3.10;2.83;;;20.90;99.90;;;;;;4967323;28;20636;-80
2022/10/26 11:18:03;;;;;;;6.10;2.60;;;22.10;99.90;;;;;;5001067;28;20427;-79
2022/10/26 11:20:59;;;;;;;4.17;2.60;;;21.80;99.90;;;;;;5031678;28;20472;-78
2022/10/26 11:23:51;;;;;;;2.60;2.40;;;21.80;99.90;;;;;;5033576;28;20488;-80
2022/10/26 11:26:47;;;;;;;2.70;2.50;;;20.80;99.90;;;;;;5030041;28;20942;-78
2022/10/26 11:29:42;;;;;;;13.83;3.07;;;19.70;99.90;;;;;;5045757;28;20810;-80
2022/10/26 11:32:37;;;;;;;3.00;2.73;;;19.70;99.90;;;;;;5057798;28;20515;-82
2022/10/26 11:35:36;;;;;;;3.47;3.17;;;19.70;99.90;;;;;;5051775;28;20504;-80
2022/10/26 11:38:42;;;;;;;8.53;3.27;;;19.90;99.90;;;;;;5074528;28;20474;-82
2022/10/26 11:41:42;;;;;;;3.07;2.77;;;20.90;99.90;;;;;;5080480;28;20991;-82
2022/10/26 11:44:36;;;;;;;3.30;2.97;;;20.20;99.90;;;;;;5075048;28;20433;-81
2022/10/26 11:47:29;;;;;;;2.43;2.23;;;19.70;99.90;;;;;;5060828;28;20423;-79
2022/10/26 11:50:21;;;;;;;4.27;3.80;;;19.00;99.90;;;;;;5074354;28;20435;-81
2022/10/26 11:53:30;;;;;;;7.23;2.90;;;19.10;99.90;;;;;;5062035;28;20506;-80
2022/10/26 11:56:28;;;;;;;3.10;2.90;;;19.00;99.90;;;;;;5049927;28;20612;-81
2022/10/26 11:59:19;;;;;;;5.53;3.80;;;19.60;99.90;;;;;;5033792;28;22523;-80
2022/10/26 12:02:11;;;;;;;6.20;2.77;;;19.30;99.90;;;;;;5048099;28;20440;-80
2022/10/26 12:05:04;;;;;;;5.67;3.00;;;19.80;99.90;;;;;;5044023;28;20476;-80
2022/10/26 12:07:56;;;;;;;4.33;3.50;;;19.80;99.90;;;;;;5056216;28;20432;-81
2022/10/26 12:10:46;;;;;;;8.70;3.20;;;20.00;99.90;;;;;;5023425;28;20900;-81
2022/10/26 12:13:41;;;;;;;4.97;3.30;;;20.50;99.90;;;;;;4978619;28;21067;-81
2022/10/26 12:16:59;;;;;;;4.03;3.60;;;21.10;99.90;;;;;;4963664;28;20469;-82
2022/10/26 12:20:05;;;;;;;5.53;3.63;;;20.00;99.90;;;;;;4978859;28;20453;-82
2022/10/26 12:22:51;;;;;;;19.37;4.17;;;20.40;99.90;;;;;;4949337;28;20532;-83
2022/10/26 12:25:37;;;;;;;6.60;2.87;;;20.50;99.90;;;;;;4963818;28;20888;-82
2022/10/26 12:28:40;;;;;;;2.97;2.67;;;19.80;99.90;;;;;;4983143;28;20566;-80
2022/10/26 12:31:42;;;;;;;7.03;2.83;;;19.40;99.90;;;;;;5019427;28;20828;-81
2022/10/26 12:35:00;;;;;;;5.40;3.00;;;19.20;99.90;;;;;;4978861;28;20855;-80
2022/10/26 12:37:44;;;;;;;7.33;3.10;;;19.40;99.90;;;;;;4997374;28;20973;-81
2022/10/26 12:40:39;;;;;;;6.47;3.20;;;19.90;99.90;;;;;;5006474;28;20821;-81
2022/10/26 12:43:34;;;;;;;4.47;3.10;;;19.90;99.90;;;;;;5020459;28;20940;-83
2022/10/26 12:46:39;;;;;;;4.77;2.90;;;20.00;99.90;;;;;;5060738;28;20578;-82
2022/10/26 12:49:58;;;;;;;6.50;4.17;;;19.80;99.90;;;;;;5042189;28;20480;-79
2022/10/26 12:53:07;;;;;;;6.10;4.17;;;19.60;99.90;;;;;;5056061;28;20445;-81
2022/10/26 12:56:04;;;;;;;8.20;3.10;;;19.50;99.90;;;;;;5071031;28;20477;-78
2022/10/26 12:59:15;;;;;;;3.67;3.30;;;19.50;99.90;;;;;;5059540;28;20476;-81
2022/10/26 13:02:22;;;;;;;3.30;3.03;;;19.30;99.90;;;;;;5092949;28;20443;-79
2022/10/26 13:05:33;;;;;;;5.70;3.27;;;19.20;99.90;;;;;;5077983;28;20550;-80
2022/10/26 13:08:17;;;;;;;3.63;3.30;;;18.90;99.90;;;;;;5081634;28;20433;-79
2022/10/26 13:11:24;;;;;;;2.93;2.73;;;19.00;99.90;;;;;;5087833;28;20434;-80
2022/10/26 13:14:20;;;;;;;4.10;2.93;;;19.10;99.90;;;;;;5079479;28;20481;-81
2022/10/26 13:17:16;;;;;;;5.73;2.87;;;20.30;99.90;;;;;;5090259;28;20465;-80
2022/10/26 13:20:24;;;;;;;7.53;3.10;;;20.90;99.90;;;;;;5071653;28;20458;-82
2022/10/26 13:23:15;;;;;;;3.33;2.83;;;21.60;99.90;;;;;;5026760;28;20486;-79
2022/10/26 13:26:12;;;;;;;6.53;2.93;;;22.20;99.90;;;;;;5030958;28;20441;-80
2022/10/26 13:29:00;;;;;;;5.33;3.80;;;23.00;99.90;;;;;;5043643;28;20532;-81
2022/10/26 13:31:55;;;;;;;6.13;3.00;;;23.70;99.90;;;;;;5026391;28;21627;-79
2022/10/26 13:34:41;;;;;;;9.53;3.03;;;23.70;99.90;;;;;;5026949;28;20834;-80
2022/10/26 13:37:29;;;;;;;15.53;4.07;;;23.80;99.90;;;;;;5016624;28;20542;-81
2022/10/26 13:40:19;;;;;;;5.10;3.33;;;23.10;99.90;;;;;;5023484;28;20425;-77
2022/10/26 13:43:11;;;;;;;3.73;3.20;;;23.40;99.90;;;;;;5020781;28;20475;-79
2022/10/26 13:46:00;;;;;;;6.27;3.30;;;24.20;99.90;;;;;;5024060;28;20473;-80
2022/10/26 13:48:46;;;;;;;4.60;3.50;;;23.40;99.90;;;;;;5014933;28;20502;-81
2022/10/26 13:51:39;;;;;;;7.17;2.77;;;23.70;99.90;;;;;;5003393;28;20989;-80
2022/10/26 13:54:48;;;;;;;4.13;2.97;;;23.60;99.90;;;;;;5026486;28;20568;-80
2022/10/26 13:57:41;;;;;;;11.20;3.43;;;22.80;99.90;;;;;;5033757;28;20619;-82
2022/10/26 14:00:25;;;;;;;2.93;2.37;;;21.90;99.90;;;;;;5018903;28;20485;-81
2022/10/26 14:03:17;;;;;;;4.10;3.30;;;21.50;99.90;;;;;;5017233;28;20830;-81
2022/10/26 14:06:33;;;;;;;4.50;3.93;;;21.60;99.90;;;;;;5029554;28;20440;-80
2022/10/26 14:09:20;;;;;;;3.80;3.20;;;21.10;99.90;;;;;;5072844;28;20425;-81
2022/10/26 14:12:05;;;;;;;5.93;3.30;;;20.90;99.90;;;;;;5056908;28;20437;-81
2022/10/26 14:14:51;;;;;;;6.13;3.07;;;22.10;99.90;;;;;;5072398;28;20452;-81
2022/10/26 14:17:35;;;;;;;3.27;2.87;;;22.10;99.90;;;;;;5054386;28;20538;-81
2022/10/26 14:20:23;;;;;;;3.77;2.77;;;22.30;99.90;;;;;;5056410;28;20772;-80
2022/10/26 14:23:29;;;;;;;8.40;3.70;;;22.30;99.90;;;;;;5073326;28;20520;-80
2022/10/26 14:26:25;;;;;;;5.40;3.60;;;22.30;99.90;;;;;;5044697;28;20857;-80
2022/10/26 14:29:17;;;;;;;7.60;3.80;;;21.80;99.90;;;;;;5071162;28;20420;-80
2022/10/26 14:32:19;;;;;;;5.00;3.20;;;21.20;99.90;;;;;;5079687;28;20952;-80
2022/10/26 14:35:04;;;;;;;10.07;6.97;;;20.90;99.90;;;;;;5082126;28;20605;-80
2022/10/26 14:37:53;;;;;;;18.13;6.10;;;20.40;99.90;;;;;;5082820;28;20481;-80
2022/10/26 14:40:51;;;;;;;7.67;4.30;;;20.20;99.90;;;;;;5094355;28;20562;-81
2022/10/26 14:43:35;;;;;;;9.57;3.73;;;19.70;99.90;;;;;;5067795;28;20485;-81
2022/10/26 14:46:20;;;;;;;6.27;4.50;;;19.80;99.90;;;;;;5089522;28;20504;-81
2022/10/26 14:49:30;;;;;;;4.43;3.70;;;19.40;99.90;;;;;;4985817;28;20493;-81